createdAt,value
2024-02-29T00:00:12.896Z,18.93
2024-02-29T00:02:40.516Z,18.94
2024-02-29T00:05:08.021Z,18.94
2024-02-29T00:07:35.164Z,18.92
2024-02-29T00:10:02.369Z,18.96
2024-02-29T00:12:29.563Z,18.92
2024-02-29T00:14:56.867Z,18.89
2024-02-29T00:17:24.025Z,18.91
2024-02-29T00:19:51.181Z,18.92
2024-02-29T00:22:18.377Z,18.94
2024-02-29T00:24:45.601Z,18.90
2024-02-29T00:27:12.775Z,18.92
2024-02-29T00:29:39.977Z,18.84
2024-02-29T00:32:08.956Z,18.84
2024-02-29T00:34:36.173Z,18.87
2024-02-29T00:37:03.430Z,18.85
2024-02-29T00:39:30.642Z,18.84
2024-02-29T00:41:58.295Z,18.86
2024-02-29T00:44:25.679Z,18.87
2024-02-29T00:46:53.025Z,18.83
2024-02-29T00:49:20.237Z,18.84
2024-02-29T00:51:47.539Z,18.84
2024-02-29T00:54:14.720Z,18.81
2024-02-29T00:56:42.184Z,18.89
2024-02-29T00:59:09.313Z,18.81
2024-02-29T01:01:36.542Z,18.81
2024-02-29T01:04:04.968Z,18.76
2024-02-29T01:06:32.226Z,18.78
2024-02-29T01:08:59.417Z,18.83
2024-02-29T01:11:26.683Z,18.85
2024-02-29T01:13:53.883Z,18.80
2024-02-29T01:16:21.088Z,18.81
2024-02-29T01:18:48.333Z,18.82
2024-02-29T01:21:15.566Z,18.79
2024-02-29T01:23:42.858Z,18.79
2024-02-29T01:26:11.626Z,18.76
2024-02-29T01:28:38.797Z,18.74
2024-02-29T01:31:06.906Z,18.74
2024-02-29T01:33:34.216Z,18.73
2024-02-29T01:36:01.642Z,18.73
2024-02-29T01:38:28.805Z,18.75
2024-02-29T01:40:55.947Z,18.73
2024-02-29T01:43:23.413Z,18.76
2024-02-29T01:45:50.775Z,18.75
2024-02-29T01:48:17.962Z,18.73
2024-02-29T01:50:45.115Z,18.77
2024-02-29T01:53:12.258Z,18.71
2024-02-29T01:55:39.394Z,18.70
2024-02-29T01:58:06.570Z,18.72
2024-02-29T02:00:34.336Z,18.74
2024-02-29T02:03:01.529Z,18.77
2024-02-29T02:05:28.665Z,18.71
2024-02-29T02:07:55.822Z,18.71
2024-02-29T02:10:23.003Z,18.70
2024-02-29T02:12:50.197Z,18.72
2024-02-29T02:15:17.357Z,18.70
2024-02-29T02:17:44.514Z,18.68
2024-02-29T02:20:18.441Z,18.70
2024-02-29T02:22:45.726Z,18.72
2024-02-29T02:25:13.533Z,18.67
2024-02-29T02:27:40.799Z,18.68
2024-02-29T02:30:08.349Z,18.66
2024-02-29T02:32:36.501Z,18.67
2024-02-29T02:35:05.270Z,18.68
2024-02-29T02:37:32.678Z,18.67
2024-02-29T02:39:59.970Z,18.70
2024-02-29T02:42:27.175Z,18.67
2024-02-29T02:44:54.328Z,18.66
2024-02-29T02:47:21.469Z,18.66
2024-02-29T02:49:48.613Z,18.62
2024-02-29T02:52:15.836Z,18.62
2024-02-29T02:54:43.062Z,18.62
2024-02-29T02:57:10.311Z,18.63
2024-02-29T02:59:37.464Z,18.59
2024-02-29T03:02:04.646Z,18.62
2024-02-29T03:04:31.821Z,18.59
2024-02-29T03:06:59.044Z,18.62
2024-02-29T03:09:26.218Z,18.58
2024-02-29T03:11:53.643Z,18.59
2024-02-29T03:14:20.872Z,18.58
2024-02-29T03:16:48.133Z,18.59
2024-02-29T03:19:15.406Z,18.57
2024-02-29T03:21:42.745Z,18.56
2024-02-29T03:24:09.884Z,18.54
2024-02-29T03:26:37.069Z,18.56
2024-02-29T03:29:04.247Z,18.56
2024-02-29T03:31:31.440Z,18.56
2024-02-29T03:33:58.911Z,18.54
2024-02-29T03:36:26.066Z,18.55
2024-02-29T03:38:53.444Z,18.53
2024-02-29T03:41:20.583Z,18.54
2024-02-29T03:43:47.722Z,18.51
2024-02-29T03:46:14.909Z,18.53
2024-02-29T03:48:42.255Z,18.49
2024-02-29T03:51:09.746Z,18.55
2024-02-29T03:53:36.922Z,18.55
2024-02-29T03:56:04.193Z,18.49
2024-02-29T03:58:31.410Z,18.52
2024-02-29T04:00:58.585Z,18.53
2024-02-29T04:03:25.753Z,18.50
2024-02-29T04:05:53.151Z,18.48
2024-02-29T04:08:20.302Z,18.54
2024-02-29T04:10:50.112Z,18.48
2024-02-29T04:13:20.224Z,18.49
2024-02-29T04:15:50.000Z,18.48
2024-02-29T04:18:17.869Z,18.47
2024-02-29T04:20:47.668Z,18.47
2024-02-29T04:23:14.827Z,18.43
2024-02-29T04:25:41.988Z,18.44
2024-02-29T04:28:09.191Z,18.45
2024-02-29T04:30:36.432Z,18.45
2024-02-29T04:33:07.036Z,18.42
2024-02-29T04:35:34.933Z,18.45
2024-02-29T04:38:02.502Z,18.41
2024-02-29T04:40:30.443Z,18.40
2024-02-29T04:42:57.672Z,18.45
2024-02-29T04:45:25.639Z,18.40
2024-02-29T04:47:53.839Z,18.39
2024-02-29T04:50:21.050Z,18.44
2024-02-29T04:52:48.222Z,18.39
2024-02-29T04:55:15.525Z,18.43
2024-02-29T04:57:42.831Z,18.39
2024-02-29T05:00:11.399Z,18.42
2024-02-29T05:02:38.643Z,18.43
2024-02-29T05:05:07.508Z,18.39
2024-02-29T05:07:34.888Z,18.45
2024-02-29T05:10:02.521Z,18.43
2024-02-29T05:12:29.732Z,18.41
2024-02-29T05:14:56.937Z,18.40
2024-02-29T05:17:24.595Z,18.41
2024-02-29T05:19:52.996Z,18.37
2024-02-29T05:22:21.008Z,18.36
2024-02-29T05:24:48.314Z,18.37
2024-02-29T05:27:15.487Z,18.37
2024-02-29T05:29:42.690Z,18.38
2024-02-29T05:32:09.896Z,18.40
2024-02-29T05:34:37.093Z,18.41
2024-02-29T05:37:04.269Z,18.35
2024-02-29T05:39:31.442Z,18.35
2024-02-29T05:41:58.624Z,18.37
2024-02-29T05:44:25.809Z,18.36
2024-02-29T05:46:52.954Z,18.38
2024-02-29T05:49:20.188Z,18.36
2024-02-29T05:51:47.498Z,18.37
2024-02-29T05:54:14.670Z,18.37
2024-02-29T05:56:41.799Z,18.37
2024-02-29T05:59:09.813Z,18.35
2024-02-29T06:01:37.117Z,18.33
2024-02-29T06:04:04.448Z,18.35
2024-02-29T06:06:32.069Z,18.35
2024-02-29T06:08:59.298Z,18.34
2024-02-29T06:11:26.496Z,18.43
2024-02-29T06:13:53.658Z,18.46
2024-02-29T06:16:21.779Z,18.44
2024-02-29T06:18:49.318Z,18.45
2024-02-29T06:21:16.549Z,18.49
2024-02-29T06:23:43.694Z,18.46
2024-02-29T06:26:10.826Z,18.52
2024-02-29T06:28:38.164Z,18.49
2024-02-29T06:31:05.485Z,18.52
2024-02-29T06:33:32.780Z,18.61
2024-02-29T06:36:00.126Z,18.62
2024-02-29T06:38:27.356Z,18.49
2024-02-29T06:40:54.537Z,18.51
2024-02-29T06:43:21.809Z,18.45
2024-02-29T06:45:49.620Z,18.53
2024-02-29T06:48:17.142Z,18.51
2024-02-29T06:50:44.508Z,18.47
2024-02-29T06:53:11.672Z,18.51
2024-02-29T06:55:39.008Z,18.51
2024-02-29T06:58:06.692Z,18.58
2024-02-29T07:00:34.002Z,18.60
2024-02-29T07:03:01.826Z,18.56
2024-02-29T07:05:29.779Z,18.57
2024-02-29T07:07:57.634Z,18.59
2024-02-29T07:10:24.875Z,18.60
2024-02-29T07:12:52.086Z,18.63
2024-02-29T07:15:19.337Z,18.68
2024-02-29T07:17:47.044Z,18.80
2024-02-29T07:20:14.771Z,18.90
2024-02-29T07:22:42.672Z,18.95
2024-02-29T07:25:10.137Z,18.98
2024-02-29T07:27:38.044Z,19.06
2024-02-29T07:30:06.001Z,19.18
2024-02-29T07:32:33.170Z,19.30
2024-02-29T07:35:00.355Z,19.36
2024-02-29T07:37:27.634Z,19.44
2024-02-29T07:39:55.002Z,19.60
2024-02-29T07:42:22.186Z,19.66
2024-02-29T07:44:49.510Z,19.74
2024-02-29T07:47:16.641Z,19.79
2024-02-29T07:49:43.770Z,19.95
2024-02-29T07:52:10.928Z,20.08
2024-02-29T07:54:38.195Z,20.18
2024-02-29T07:57:05.456Z,20.27
2024-02-29T07:59:33.252Z,20.35
2024-02-29T08:02:00.582Z,20.50
2024-02-29T08:04:27.822Z,20.61
2024-02-29T08:06:54.973Z,20.72
2024-02-29T08:09:22.192Z,20.67
2024-02-29T08:11:49.405Z,20.75
2024-02-29T08:14:18.970Z,20.83
2024-02-29T08:16:47.864Z,20.94
2024-02-29T08:19:15.732Z,21.07
2024-02-29T08:21:42.935Z,21.11
2024-02-29T08:24:10.101Z,21.16
2024-02-29T08:26:37.234Z,21.30
2024-02-29T08:29:04.380Z,21.42
2024-02-29T08:31:31.687Z,21.46
2024-02-29T08:33:58.963Z,21.58
2024-02-29T08:36:26.187Z,21.71
2024-02-29T08:38:53.325Z,21.81
2024-02-29T08:41:20.628Z,21.90
2024-02-29T08:43:50.152Z,21.91
2024-02-29T08:46:18.468Z,21.97
2024-02-29T08:48:46.913Z,22.12
2024-02-29T08:51:14.116Z,22.23
2024-02-29T08:53:41.290Z,22.27
2024-02-29T08:56:08.465Z,22.35
2024-02-29T08:58:35.600Z,22.46
2024-02-29T09:01:03.386Z,22.44
2024-02-29T09:03:30.613Z,22.45
2024-02-29T09:05:57.822Z,22.44
2024-02-29T09:08:24.946Z,22.38
2024-02-29T09:10:52.128Z,22.36
2024-02-29T09:13:29.821Z,22.32
2024-02-29T09:16:02.284Z,22.37
2024-02-29T09:18:30.344Z,22.31
2024-02-29T09:20:58.045Z,22.31
2024-02-29T09:23:25.252Z,22.33
2024-02-29T09:25:52.400Z,22.33
2024-02-29T09:28:19.651Z,22.40
2024-02-29T09:30:46.887Z,22.32
2024-02-29T09:33:14.147Z,22.29
2024-02-29T09:35:41.301Z,22.31
2024-02-29T09:38:08.563Z,22.25
2024-02-29T09:40:42.466Z,22.22
2024-02-29T09:43:16.880Z,22.12
2024-02-29T09:45:46.586Z,22.06
2024-02-29T09:48:13.871Z,21.96
2024-02-29T09:50:41.259Z,21.96
2024-02-29T09:53:08.548Z,21.92
2024-02-29T09:55:38.205Z,21.97
2024-02-29T09:58:05.467Z,21.98
2024-02-29T10:00:34.069Z,21.95
2024-02-29T10:03:01.835Z,21.94
2024-02-29T10:05:28.998Z,21.93
2024-02-29T10:07:56.145Z,21.91
2024-02-29T10:10:23.605Z,21.94
2024-02-29T10:12:55.976Z,21.93
2024-02-29T10:15:26.817Z,21.93
2024-02-29T10:17:54.116Z,21.92
2024-02-29T10:20:22.518Z,21.92
2024-02-29T10:22:55.841Z,21.83
2024-02-29T10:25:23.190Z,21.86
2024-02-29T10:27:50.494Z,21.82
2024-02-29T10:30:18.155Z,21.82
2024-02-29T10:32:45.741Z,21.81
2024-02-29T10:35:22.075Z,21.79
2024-02-29T10:37:53.484Z,21.79
2024-02-29T10:40:20.963Z,21.77
2024-02-29T10:42:52.121Z,21.76
2024-02-29T10:45:19.369Z,21.74
2024-02-29T10:47:50.571Z,21.71
2024-02-29T10:50:20.837Z,21.71
2024-02-29T10:52:49.376Z,21.68
2024-02-29T10:55:18.353Z,21.67
2024-02-29T10:58:04.546Z,21.61
2024-02-29T11:00:31.788Z,21.62
2024-02-29T11:02:58.981Z,21.60
2024-02-29T11:05:26.110Z,21.56
2024-02-29T11:07:53.291Z,21.55
2024-02-29T11:10:20.513Z,21.52
2024-02-29T11:12:49.744Z,21.51
2024-02-29T11:15:24.923Z,21.48
2024-02-29T11:17:52.888Z,20.65
2024-02-29T11:20:20.472Z,20.22
2024-02-29T11:22:48.538Z,19.78
2024-02-29T11:25:22.393Z,19.56
2024-02-29T11:27:51.811Z,20.52
2024-02-29T11:30:21.988Z,19.93
2024-02-29T11:32:49.225Z,19.68
2024-02-29T11:35:16.408Z,19.51
2024-02-29T11:37:46.941Z,19.49
2024-02-29T11:40:16.771Z,19.39
2024-02-29T11:42:44.039Z,19.42
2024-02-29T11:45:21.097Z,19.43
2024-02-29T11:47:48.564Z,19.42
2024-02-29T11:50:15.837Z,20.17
2024-02-29T11:52:43.007Z,20.63
2024-02-29T11:55:11.731Z,20.79
2024-02-29T11:57:38.970Z,20.87
2024-02-29T12:00:07.480Z,20.88
2024-02-29T12:02:35.481Z,20.87
2024-02-29T12:05:02.717Z,20.88
2024-02-29T12:07:29.950Z,20.88
2024-02-29T12:09:57.286Z,20.89
2024-02-29T12:12:24.494Z,20.87
2024-02-29T12:14:51.639Z,20.88
2024-02-29T12:17:20.016Z,20.88
2024-02-29T12:19:47.406Z,20.85
2024-02-29T12:22:14.739Z,20.83
2024-02-29T12:24:44.883Z,20.86
2024-02-29T12:27:12.286Z,20.87
2024-02-29T12:29:39.946Z,20.85
2024-02-29T12:32:07.090Z,20.84
2024-02-29T12:34:36.103Z,20.85
2024-02-29T12:37:03.307Z,20.83
2024-02-29T12:39:30.483Z,20.83
2024-02-29T12:41:57.710Z,20.82
2024-02-29T12:44:25.745Z,20.82
2024-02-29T12:46:53.383Z,20.83
2024-02-29T12:49:20.552Z,20.78
2024-02-29T12:51:49.014Z,20.79
2024-02-29T12:54:16.223Z,20.78
2024-02-29T12:56:43.757Z,20.77
2024-02-29T12:59:11.452Z,20.76
2024-02-29T13:01:39.178Z,20.76
2024-02-29T13:04:06.454Z,20.76
2024-02-29T13:06:33.607Z,20.70
2024-02-29T13:09:00.774Z,20.68
2024-02-29T13:11:28.101Z,20.69
2024-02-29T13:13:55.379Z,20.71
2024-02-29T13:16:22.592Z,20.70
2024-02-29T13:18:49.819Z,20.69
2024-02-29T13:21:17.014Z,20.67
2024-02-29T13:23:44.888Z,20.67
2024-02-29T13:26:13.071Z,20.66
2024-02-29T13:28:40.314Z,20.63
2024-02-29T13:31:09.556Z,20.62
2024-02-29T13:33:36.789Z,20.63
2024-02-29T13:36:04.085Z,20.63
2024-02-29T13:38:31.278Z,20.62
2024-02-29T13:41:01.200Z,20.59
2024-02-29T13:43:28.376Z,20.61
2024-02-29T13:45:55.760Z,20.60
2024-02-29T13:48:23.710Z,20.59
2024-02-29T13:50:50.875Z,20.59
2024-02-29T13:53:18.033Z,20.59
2024-02-29T13:55:48.431Z,20.57
2024-02-29T13:58:15.931Z,20.55
2024-02-29T14:00:43.236Z,20.54
2024-02-29T14:03:10.501Z,20.52
2024-02-29T14:05:37.719Z,20.54
2024-02-29T14:08:05.053Z,20.57
2024-02-29T14:10:32.375Z,20.53
2024-02-29T14:12:59.634Z,20.53
2024-02-29T14:15:26.862Z,20.57
2024-02-29T14:17:54.091Z,20.55
2024-02-29T14:20:21.309Z,20.54
2024-02-29T14:22:51.204Z,20.53
2024-02-29T14:25:18.592Z,20.53
2024-02-29T14:27:46.255Z,20.49
2024-02-29T14:30:14.542Z,20.49
2024-02-29T14:32:41.935Z,20.48
2024-02-29T14:35:09.226Z,20.48
2024-02-29T14:37:36.377Z,20.47
2024-02-29T14:40:05.577Z,20.50
2024-02-29T14:42:32.867Z,20.47
2024-02-29T14:45:00.016Z,20.52
2024-02-29T14:47:29.410Z,20.47
2024-02-29T14:49:56.879Z,20.44
2024-02-29T14:52:27.545Z,20.45
2024-02-29T14:54:55.000Z,20.45
2024-02-29T14:57:22.196Z,20.40
2024-02-29T14:59:49.345Z,20.39
2024-02-29T15:02:16.833Z,20.40
2024-02-29T15:04:44.416Z,20.33
2024-02-29T15:07:14.327Z,20.34
2024-02-29T15:09:41.524Z,20.36
2024-02-29T15:12:09.019Z,20.31
2024-02-29T15:14:36.182Z,20.39
2024-02-29T15:17:04.395Z,20.41
2024-02-29T15:19:31.596Z,20.39
2024-02-29T15:21:59.168Z,20.40
2024-02-29T15:24:26.464Z,20.37
2024-02-29T15:26:59.804Z,20.38
2024-02-29T15:29:27.610Z,20.42
2024-02-29T15:31:54.810Z,20.40
2024-02-29T15:34:22.252Z,20.42
2024-02-29T15:36:49.540Z,20.39
2024-02-29T15:39:16.747Z,20.38
2024-02-29T15:41:44.917Z,20.34
2024-02-29T15:44:12.226Z,20.37
2024-02-29T15:46:39.519Z,20.39
2024-02-29T15:49:06.926Z,20.35
2024-02-29T15:51:34.183Z,20.33
2024-02-29T15:54:01.338Z,20.34
2024-02-29T15:56:29.020Z,20.30
2024-02-29T15:58:56.820Z,20.31
2024-02-29T16:01:24.131Z,20.31
2024-02-29T16:03:51.350Z,20.30
2024-02-29T16:06:20.543Z,20.33
2024-02-29T16:08:47.912Z,20.26
2024-02-29T16:11:15.251Z,20.23
2024-02-29T16:13:42.585Z,20.19
2024-02-29T16:16:09.857Z,20.18
2024-02-29T16:18:37.144Z,20.15
2024-02-29T16:21:07.057Z,20.12
2024-02-29T16:23:37.266Z,20.05
2024-02-29T16:26:05.267Z,20.07
2024-02-29T16:28:32.450Z,20.06
2024-02-29T16:30:59.661Z,20.09
2024-02-29T16:33:26.850Z,20.06
2024-02-29T16:35:54.023Z,20.11
2024-02-29T16:38:21.441Z,20.07
2024-02-29T16:40:48.889Z,20.08
2024-02-29T16:43:21.619Z,20.04
2024-02-29T16:45:49.684Z,20.07
2024-02-29T16:48:16.829Z,20.08
2024-02-29T16:50:45.997Z,19.98
2024-02-29T16:53:13.457Z,20.02
2024-02-29T16:55:40.625Z,20.01
2024-02-29T16:58:07.816Z,20.00
2024-02-29T17:00:35.007Z,19.93
2024-02-29T17:03:02.156Z,19.99
2024-02-29T17:05:29.451Z,19.95
2024-02-29T17:07:56.596Z,19.95
2024-02-29T17:10:23.822Z,19.95
2024-02-29T17:12:51.001Z,19.95
2024-02-29T17:15:18.190Z,19.92
2024-02-29T17:17:45.432Z,19.94
2024-02-29T17:20:12.679Z,19.98
2024-02-29T17:22:40.333Z,19.93
2024-02-29T17:25:07.888Z,19.95
2024-02-29T17:27:35.669Z,19.94
2024-02-29T17:30:02.838Z,19.89
2024-02-29T17:32:30.985Z,19.92
2024-02-29T17:34:58.158Z,19.87
2024-02-29T17:37:29.254Z,19.88
2024-02-29T17:39:57.863Z,19.89
2024-02-29T17:42:29.475Z,19.85
2024-02-29T17:44:56.660Z,19.85
2024-02-29T17:47:23.808Z,19.90
2024-02-29T17:49:50.977Z,19.85
2024-02-29T17:52:18.388Z,19.84
2024-02-29T17:54:45.554Z,19.84
2024-02-29T17:57:13.715Z,19.88
2024-02-29T17:59:41.234Z,19.85
2024-02-29T18:02:08.717Z,19.83
2024-02-29T18:04:36.311Z,19.80
2024-02-29T18:07:03.655Z,19.82
2024-02-29T18:09:30.819Z,19.82
2024-02-29T18:11:57.972Z,19.84
2024-02-29T18:14:25.125Z,19.85
2024-02-29T18:16:52.343Z,19.83
2024-02-29T18:19:19.590Z,19.82
2024-02-29T18:21:47.235Z,19.82
2024-02-29T18:24:14.441Z,19.81
2024-02-29T18:26:41.626Z,19.82
2024-02-29T18:29:08.789Z,19.81
2024-02-29T18:31:35.926Z,19.78
2024-02-29T18:34:03.610Z,19.82
2024-02-29T18:36:30.850Z,19.77
2024-02-29T18:38:58.014Z,19.72
2024-02-29T18:41:28.087Z,19.71
2024-02-29T18:43:55.866Z,19.74
2024-02-29T18:46:23.047Z,19.78
2024-02-29T18:48:50.201Z,19.74
2024-02-29T18:51:17.365Z,19.74
2024-02-29T18:53:44.526Z,19.73
2024-02-29T18:56:11.669Z,19.75
2024-02-29T18:58:38.832Z,19.76
2024-02-29T19:01:06.065Z,19.75
2024-02-29T19:03:33.332Z,19.74
2024-02-29T19:06:00.533Z,19.72
2024-02-29T19:08:27.725Z,19.68
2024-02-29T19:10:56.894Z,19.74
2024-02-29T19:13:24.487Z,19.71
2024-02-29T19:15:52.288Z,19.75
2024-02-29T19:18:19.583Z,19.72
2024-02-29T19:20:46.855Z,19.74
2024-02-29T19:23:14.059Z,19.72
2024-02-29T19:25:45.774Z,19.77
2024-02-29T19:28:13.048Z,19.80
2024-02-29T19:30:40.204Z,19.71
2024-02-29T19:33:07.457Z,19.71
2024-02-29T19:35:35.451Z,19.72
2024-02-29T19:38:02.655Z,19.76
2024-02-29T19:40:29.885Z,19.75
2024-02-29T19:42:57.089Z,19.74
2024-02-29T19:45:24.725Z,19.67
2024-02-29T19:47:52.614Z,19.69
2024-02-29T19:50:21.441Z,19.72
2024-02-29T19:52:48.586Z,19.72
2024-02-29T19:55:16.006Z,19.74
2024-02-29T19:57:43.210Z,19.70
2024-02-29T20:00:11.961Z,19.69
2024-02-29T20:02:39.153Z,19.62
2024-02-29T20:05:06.672Z,19.74
2024-02-29T20:07:34.529Z,19.67
2024-02-29T20:10:01.799Z,19.63
2024-02-29T20:12:29.082Z,19.69
2024-02-29T20:14:56.247Z,19.63
2024-02-29T20:17:23.642Z,19.65
2024-02-29T20:19:51.437Z,19.63
2024-02-29T20:22:18.654Z,19.64
2024-02-29T20:24:46.020Z,19.64
2024-02-29T20:27:13.199Z,19.60
2024-02-29T20:29:44.674Z,19.60
2024-02-29T20:32:14.764Z,19.62
2024-02-29T20:34:41.917Z,19.63
2024-02-29T20:37:09.090Z,19.59
2024-02-29T20:39:36.301Z,19.57
2024-02-29T20:42:03.453Z,19.56
2024-02-29T20:44:30.631Z,19.65
2024-02-29T20:46:57.898Z,19.70
2024-02-29T20:49:25.048Z,19.71
2024-02-29T20:51:52.215Z,19.73
2024-02-29T20:54:19.352Z,19.74
2024-02-29T20:56:46.506Z,19.73
2024-02-29T20:59:13.696Z,19.65
2024-02-29T21:01:43.063Z,19.61
2024-02-29T21:04:11.631Z,19.66
2024-02-29T21:06:38.796Z,19.65
2024-02-29T21:09:06.241Z,19.61
2024-02-29T21:11:33.466Z,19.63
2024-02-29T21:14:00.621Z,19.67
2024-02-29T21:16:27.768Z,19.66
2024-02-29T21:18:54.999Z,19.65
2024-02-29T21:21:22.166Z,19.66
2024-02-29T21:23:49.329Z,19.73
2024-02-29T21:26:16.988Z,19.67
2024-02-29T21:28:47.403Z,19.65
2024-02-29T21:31:14.658Z,19.66
2024-02-29T21:33:41.828Z,19.68
2024-02-29T21:36:08.983Z,19.68
2024-02-29T21:38:36.307Z,19.68
2024-02-29T21:41:03.536Z,19.69
2024-02-29T21:43:30.791Z,19.66
2024-02-29T21:45:58.023Z,19.65
2024-02-29T21:48:25.209Z,19.69
2024-02-29T21:50:52.444Z,19.67
2024-02-29T21:53:19.716Z,19.67
2024-02-29T21:55:46.877Z,19.67
2024-02-29T21:58:14.081Z,19.70
2024-02-29T22:00:41.340Z,19.47
2024-02-29T22:03:08.576Z,19.55
2024-02-29T22:05:35.765Z,19.55
2024-02-29T22:08:02.954Z,19.63
2024-02-29T22:10:30.155Z,19.60
2024-02-29T22:12:57.467Z,19.62
2024-02-29T22:15:24.648Z,19.57
2024-02-29T22:17:56.805Z,19.57
2024-02-29T22:20:24.880Z,19.58
2024-02-29T22:22:52.109Z,19.54
2024-02-29T22:25:19.366Z,19.57
2024-02-29T22:27:46.735Z,19.54
2024-02-29T22:30:14.093Z,19.54
2024-02-29T22:32:41.618Z,19.53
2024-02-29T22:35:08.917Z,19.54
2024-02-29T22:37:36.203Z,19.53
2024-02-29T22:40:05.017Z,19.51
2024-02-29T22:42:32.265Z,19.52
2024-02-29T22:44:59.391Z,19.51
2024-02-29T22:47:26.554Z,19.49
2024-02-29T22:49:53.741Z,19.48
2024-02-29T22:52:20.970Z,19.47
2024-02-29T22:54:48.130Z,19.48
2024-02-29T22:57:15.270Z,19.44
2024-02-29T22:59:42.450Z,19.45
2024-02-29T23:02:09.672Z,19.43
2024-02-29T23:04:36.905Z,19.42
2024-02-29T23:07:04.070Z,19.43
2024-02-29T23:09:31.236Z,19.41
2024-02-29T23:12:00.587Z,19.42
2024-02-29T23:14:28.812Z,19.42
2024-02-29T23:16:56.018Z,19.41
2024-02-29T23:19:23.200Z,19.43
2024-02-29T23:21:50.414Z,19.41
2024-02-29T23:24:17.612Z,19.38
2024-02-29T23:26:44.749Z,19.35
2024-02-29T23:29:11.891Z,19.42
2024-02-29T23:31:39.694Z,19.40
2024-02-29T23:34:06.954Z,19.38
2024-02-29T23:36:34.114Z,19.39
2024-02-29T23:39:01.299Z,19.37
2024-02-29T23:41:28.437Z,19.37
2024-02-29T23:43:55.598Z,19.42
2024-02-29T23:46:22.782Z,19.35
2024-02-29T23:48:49.969Z,19.34
2024-02-29T23:51:18.863Z,19.38
2024-02-29T23:53:46.028Z,19.36
2024-02-29T23:56:13.185Z,19.33
2024-02-29T23:58:41.180Z,19.35
